Map

Track Data

SID SEASON NUMBER BASIN SUBBASIN NAME ISO_TIME NATURE LAT LON WMO_WIND WMO_PRES WMO_AGENCY TRACK_TYPE DIST2LAND LANDFALL IFLAG USA_AGENCY USA_ATCF_ID USA_LAT USA_LON USA_RECORD USA_STATUS USA_WIND USA_PRES USA_SSHS USA_R34_NE USA_R34_SE USA_R34_SW USA_R34_NW USA_R50_NE USA_R50_SE USA_R50_SW USA_R50_NW USA_R64_NE USA_R64_SE USA_R64_SW USA_R64_NW USA_POCI USA_ROCI USA_RMW USA_EYE TOKYO_LAT TOKYO_LON TOKYO_GRADE TOKYO_WIND TOKYO_PRES TOKYO_R50_DIR TOKYO_R50_LONG TOKYO_R50_SHORT TOKYO_R30_DIR TOKYO_R30_LONG TOKYO_R30_SHORT TOKYO_LAND CMA_LAT CMA_LON CMA_CAT CMA_WIND CMA_PRES HKO_LAT HKO_LON HKO_CAT HKO_WIND HKO_PRES NEWDELHI_LAT NEWDELHI_LON NEWDELHI_GRADE NEWDELHI_WIND NEWDELHI_PRES NEWDELHI_CI NEWDELHI_DP NEWDELHI_POCI REUNION_LAT REUNION_LON REUNION_TYPE REUNION_WIND REUNION_PRES REUNION_TNUM REUNION_CI REUNION_RMW REUNION_R34_NE REUNION_R34_SE REUNION_R34_SW REUNION_R34_NW REUNION_R50_NE REUNION_R50_SE REUNION_R50_SW REUNION_R50_NW REUNION_R64_NE REUNION_R64_SE REUNION_R64_SW REUNION_R64_NW BOM_LAT BOM_LON BOM_TYPE BOM_WIND BOM_PRES BOM_TNUM BOM_CI BOM_RMW BOM_R34_NE BOM_R34_SE BOM_R34_SW BOM_R34_NW BOM_R50_NE BOM_R50_SE BOM_R50_SW BOM_R50_NW BOM_R64_NE BOM_R64_SE BOM_R64_SW BOM_R64_NW BOM_ROCI BOM_POCI BOM_EYE BOM_POS_METHOD BOM_PRES_METHOD NADI_LAT NADI_LON NADI_CAT NADI_WIND NADI_PRES WELLINGTON_LAT WELLINGTON_LON WELLINGTON_WIND WELLINGTON_PRES DS824_LAT DS824_LON DS824_STAGE DS824_WIND DS824_PRES TD9636_LAT TD9636_LON TD9636_STAGE TD9636_WIND TD9636_PRES TD9635_LAT TD9635_LON TD9635_WIND TD9635_PRES TD9635_ROCI NEUMANN_LAT NEUMANN_LON NEUMANN_CLASS NEUMANN_WIND NEUMANN_PRES MLC_LAT MLC_LON MLC_CLASS MLC_WIND MLC_PRES USA_GUST BOM_GUST BOM_GUST_PER REUNION_GUST REUNION_GUST_PER USA_SEAHGT USA_SEARAD_NE USA_SEARAD_SE USA_SEARAD_SW USA_SEARAD_NW STORM_SPEED STORM_DIR
1963021S11101 1963 9 SI WA NOT_NAMED 1963-01-20 23:00:00 NR -11.1000 101.200 main 652 652 __________O___ -1 -11.1000 101.200 1 8 215
1963021S11101 1963 9 SI WA NOT_NAMED 1963-01-21 00:00:00 TS -11.2161 101.120 main 667 667 O________OP___ jtwc_sh SH201963 -11.2000 101.100 -1 -11.2000 101.100 TC -11.2323 101.139 1 8 218
1963021S11101 1963 9 SI WA NOT_NAMED 1963-01-21 01:00:00 TS -11.3034 101.039 1007 bom main 683 683 P_____O__PP___ SH201963 -11.3334 101.018 -1 -11.0000 101.000 1007 -11.3334 101.018 TC -11.3646 101.079 1 8 211
1963021S11101 1963 9 SI WA NOT_NAMED 1963-01-21 03:00:00 TS -11.5436 100.921 main 707 707 P_____P__PP___ SH201963 -11.6001 100.865 -1 -11.2025 101.000 1006 -11.6001 100.865 TC -11.6296 100.965 1 8 206
1963021S11101 1963 9 SI WA NOT_NAMED 1963-01-21 04:00:00 TS -11.6544 100.869 1006 bom main 724 724 P_____O__PP___ SH201963 -11.7334 100.799 -1 -11.3000 101.000 1006 -11.7334 100.799 TC -11.7623 100.912 1 7 198
1963021S11101 1963 9 SI WA NOT_NAMED 1963-01-21 06:00:00 TS -11.8578 100.816 main 748 748 O_____P__OP___ jtwc_sh SH201963 -12.0000 100.700 -1 -11.4921 101.000 1005 -12.0000 100.700 TC -12.0284 100.819 1 6 191
1963021S11101 1963 9 SI WA NOT_NAMED 1963-01-21 07:00:00 TS -11.9648 100.806 1005 bom main 756 756 P_____O__PP___ SH201963 -12.1333 100.672 -1 -11.6000 101.000 1005 -12.1333 100.672 TC -12.1619 100.781 1 7 184
1963021S11101 1963 9 SI WA NOT_NAMED 1963-01-21 09:00:00 TS -12.2106 100.798 main 773 773 P_____P__PP___ SH201963 -12.4000 100.655 -1 -11.8605 101.000 1004 -12.4000 100.655 TC -12.4300 100.724 1 7 0
1963021S11101 1963 9 SI WA NOT_NAMED 1963-01-21 10:00:00 TS -12.3278 100.809 1004 bom main 782 782 P_____O__PP___ SH201963 -12.5333 100.662 -1 -12.0000 101.000 1004 -12.5333 100.662 TC -12.5647 100.708 1 8 178
1963021S11101 1963 9 SI WA NOT_NAMED 1963-01-21 11:00:00 TS -12.4607 100.814 main 800 800 P_____P__PO___ SH201963 -12.6667 100.678 -1 -12.1333 101.000 1003 -12.6667 100.678 TC -12.7000 100.700 2 8 0
1963021S11101 1963 9 SI WA NOT_NAMED 1963-01-21 12:00:00 TS -12.5940 100.823 main 809 809 O_____P__OP___ jtwc_sh SH201963 -12.8000 100.700 -1 -12.2667 101.000 1003 -12.8000 100.700 TC -12.8357 100.702 2 8 175
1963021S11101 1963 9 SI WA NOT_NAMED 1963-01-21 15:00:00 TS -13.0010 100.867 main 839 839 P_____P__PP___ SH201963 -13.2150 100.785 -1 -12.6667 101.000 1003 -13.2150 100.785 TC -13.2367 100.756 2 8 173
1963021S11101 1963 9 SI WA NOT_NAMED 1963-01-21 16:00:00 TS -13.1350 100.888 1003 bom main 848 848 P_____O__PP___ SH201963 -13.3491 100.822 -1 -12.8000 101.000 1003 -13.3491 100.822 TC -13.3654 100.788 2 8 171
1963021S11101 1963 9 SI WA NOT_NAMED 1963-01-21 18:00:00 TS -13.3952 100.933 main 876 876 O_____P__OP___ jtwc_sh SH201963 -13.6000 100.900 -1 -13.0667 101.000 1002 -13.6000 100.900 TC -13.6095 100.865 2 8 170
1963021S11101 1963 9 SI WA NOT_NAMED 1963-01-21 19:00:00 TS -13.5232 100.953 1002 bom main 880 880 P_____O__PP___ SH201963 -13.7219 100.931 -1 -13.2000 101.000 1002 -13.7219 100.931 TC -13.7232 100.909 2 8 172
1963021S11101 1963 9 SI WA NOT_NAMED 1963-01-21 21:00:00 TS -13.7653 100.995 main 908 908 P_____P__PP___ SH201963 -13.9450 100.993 -1 -13.4667 101.000 1001 -13.9450 100.993 TC -13.9290 101.004 2 7 172
1963021S11101 1963 9 SI WA NOT_NAMED 1963-01-21 22:00:00 TS -13.8759 101.017 1001 bom main 918 918 P_____O__PP___ SH201963 -14.0425 101.025 -1 -13.6000 101.000 1001 -14.0425 101.025 TC -14.0193 101.052 2 7 168
1963021S11101 1963 9 SI WA NOT_NAMED 1963-01-21 23:00:00 TS -13.9804 101.041 main 928 922 P_____P__PO___ SH201963 -14.1281 101.061 -1 -13.7496 100.995 1000 -14.1281 101.061 TC -14.1000 101.100 1 6 171
1963021S11101 1963 9 SI WA NOT_NAMED 1963-01-22 00:00:00 TS -14.0712 101.066 main 932 932 O_____P__OP___ jtwc_sh SH201963 -14.2000 101.100 -1 -13.8904 100.992 1000 -14.2000 101.100 TC -14.1656 101.138 1 5 161
1963021S11101 1963 9 SI WA NOT_NAMED 1963-01-22 01:00:00 TS -14.1437 101.098 1000 bom main 932 932 P_____O__PP___ SH201963 -14.2588 101.147 -1 -14.0000 101.000 1000 -14.2588 101.147 TC -14.2211 101.178 1 4 145
1963021S11101 1963 9 SI WA NOT_NAMED 1963-01-22 03:00:00 TS -14.2295 101.178 main 937 937 P_____P__PP___ SH201963 -14.3375 101.250 -1 -14.0751 101.053 1000 -14.3375 101.250 TC -14.3069 101.259 1 3 132
1963021S11101 1963 9 SI WA NOT_NAMED 1963-01-22 04:00:00 TS -14.2592 101.224 1000 bom main 947 942 P_____O__PP___ SH201963 -14.3630 101.302 -1 -14.1000 101.100 1000 -14.3630 101.302 TC -14.3397 101.301 1 3 124
1963021S11101 1963 9 SI WA NOT_NAMED 1963-01-22 06:00:00 TS -14.3255 101.324 main 942 937 O_____P__OP___ jtwc_sh SH201963 -14.4000 101.400 -1 -14.2358 101.236 1000 -14.4000 101.400 TC -14.3915 101.385 1 3 126
1963021S11101 1963 9 SI WA NOT_NAMED 1963-01-22 07:00:00 TS -14.3600 101.369 1000 bom main 947 947 P_____O__PP___ SH201963 -14.4171 101.436 -1 -14.3000 101.300 1000 -14.4171 101.436 TC -14.4131 101.428 1 3 127
1963021S11101 1963 9 SI WA NOT_NAMED 1963-01-22 09:00:00 TS -14.4137 101.445 main 947 942 P_____P__PP___ SH201963 -14.4425 101.500 -1 -14.3702 101.370 1000 -14.4425 101.500 TC -14.4538 101.514 1 3 126
1963021S11101 1963 9 SI WA NOT_NAMED 1963-01-22 10:00:00 TS -14.4402 101.482 1001 bom main 942 942 P_____O__PP___ SH201963 -14.4563 101.531 -1 -14.4000 101.400 1001 -14.4563 101.531 TC -14.4756 101.557 1 3 127
1963021S11101 1963 9 SI WA NOT_NAMED 1963-01-22 11:00:00 TS -14.4721 101.524 main 952 947 P_____P__PO___ SH201963 -14.4745 101.564 -1 -14.4454 101.445 1001 -14.4745 101.564 TC -14.5000 101.600 1 3 132
1963021S11101 1963 9 SI WA NOT_NAMED 1963-01-22 12:00:00 TS -14.5104 101.565 main 947 947 O_____P__OP___ jtwc_sh SH201963 -14.5000 101.600 -1 -14.4963 101.496 1001 -14.5000 101.600 TC -14.5370 101.631 1 4 136
1963021S11101 1963 9 SI WA NOT_NAMED 1963-01-22 15:00:00 TS -14.6523 101.703 main 963 963 P_____P__PP___ SH201963 -14.6425 101.742 -1 -14.6546 101.655 1001 -14.6425 101.742 TC -14.6530 101.718 1 4 137
1963021S11101 1963 9 SI WA NOT_NAMED 1963-01-22 16:00:00 TS -14.7005 101.749 1001 bom main 963 959 P_____O__PP___ SH201963 -14.6970 101.795 -1 -14.7000 101.700 1001 -14.6970 101.795 TC -14.6934 101.749 1 4 136
1963021S11101 1963 9 SI WA NOT_NAMED 1963-01-22 18:00:00 TS -14.7890 101.838 main 968 963 O_____P__OP___ jtwc_sh SH201963 -14.8000 101.900 -1 -14.7684 101.768 1001 -14.8000 101.900 TC -14.7767 101.820 1 3 136
1963021S11101 1963 9 SI WA NOT_NAMED 1963-01-22 19:00:00 TS -14.8248 101.875 1001 bom main 963 963 P_____O__PP___ SH201963 -14.8338 101.942 -1 -14.8000 101.800 1001 -14.8338 101.942 TC -14.8196 101.863 1 3 133
1963021S11101 1963 9 SI WA NOT_NAMED 1963-01-22 21:00:00 TS -14.8929 101.954 main 967 967 P_____P__PP___ SH201963 -14.8924 102.028 -1 -14.8667 101.867 1001 -14.8924 102.028 TC -14.9081 101.965 1 3 130
1963021S11101 1963 9 SI WA NOT_NAMED 1963-01-22 22:00:00 TS -14.9272 101.999 1002 bom main 967 967 P_____O__PP___ SH201963 -14.9229 102.076 -1 -14.9000 101.900 1002 -14.9229 102.076 TC -14.9536 102.028 1 3 129
1963021S11101 1963 9 SI WA NOT_NAMED 1963-01-22 23:00:00 TS -14.9635 102.048 main 977 971 P_____P__PO___ SH201963 -14.9578 102.133 -1 -14.9333 101.922 1002 -14.9578 102.133 TC -15.0000 102.100 1 4 125
1963021S11101 1963 9 SI WA NOT_NAMED 1963-01-23 00:00:00 TS -15.0032 102.107 main 971 966 O_____P__OP___ jtwc_sh SH201963 -15.0000 102.200 -1 -14.9666 101.951 1002 -15.0000 102.200 TC -15.0491 102.183 1 5 125
1963021S11101 1963 9 SI WA NOT_NAMED 1963-01-23 01:00:00 TS -15.0504 102.178 1002 bom main 976 971 P_____O__PP___ SH201963 -15.0605 102.278 -1 -15.0000 102.000 1002 -15.0605 102.278 TC -15.0996 102.274 1 6 121
1963021S11101 1963 9 SI WA NOT_NAMED 1963-01-23 03:00:00 TS -15.1514 102.361 main 976 976 P_____P__PP___ SH201963 -15.2000 102.462 -1 -15.0588 102.189 1002 -15.2000 102.462 TC -15.2030 102.479 1 6 119
1963021S11101 1963 9 SI WA NOT_NAMED 1963-01-23 04:00:00 TS -15.2053 102.465 1002 bom main 971 971 P_____O__PP___ SH201963 -15.2716 102.568 -1 -15.1000 102.300 1002 -15.2716 102.568 TC -15.2553 102.592 1 7 118
1963021S11101 1963 9 SI WA NOT_NAMED 1963-01-23 06:00:00 TS -15.3190 102.685 main 972 972 O_____P__OP___ jtwc_sh SH201963 -15.4000 102.800 -1 -15.2358 102.492 1002 -15.4000 102.800 TC -15.3593 102.833 1 7 117
1963021S11101 1963 9 SI WA NOT_NAMED 1963-01-23 07:00:00 TS -15.3677 102.801 1002 bom main 978 969 P_____O__PP___ SH201963 -15.4421 102.919 -1 -15.3000 102.600 1002 -15.4421 102.919 TC -15.4104 102.961 1 8 110
1963021S11101 1963 9 SI WA NOT_NAMED 1963-01-23 09:00:00 TS -15.4469 103.057 main 965 965 P_____P__PP___ SH201963 -15.5075 103.178 -1 -15.3702 102.861 1002 -15.5075 103.178 TC -15.5088 103.226 1 8 107
1963021S11101 1963 9 SI WA NOT_NAMED 1963-01-23 10:00:00 TS -15.4841 103.193 1002 bom main 971 967 P_____O__PP___ SH201963 -15.5363 103.315 -1 -15.4000 103.000 1002 -15.5363 103.315 TC -15.5554 103.362 1 8 106
1963021S11101 1963 9 SI WA NOT_NAMED 1963-01-23 11:00:00 TS -15.5248 103.330 main 967 964 P_____P__PO___ SH201963 -15.5662 103.456 -1 -15.4453 103.133 1002 -15.5662 103.456 TC -15.6000 103.500 1 8 107
1963021S11101 1963 9 SI WA NOT_NAMED 1963-01-23 12:00:00 TS -15.5677 103.470 main 971 964 O_____P__OP___ jtwc_sh SH201963 -15.6000 103.600 -1 -15.4963 103.267 1002 -15.6000 103.600 TC -15.6422 103.639 1 8 109
1963021S11101 1963 9 SI WA NOT_NAMED 1963-01-23 15:00:00 TS -15.7051 103.881 main 968 965 P_____P__PP___ SH201963 -15.7352 104.045 -1 -15.6546 103.667 1002 -15.7352 104.045 TC -15.7559 104.059 1 8 109
1963021S11101 1963 9 SI WA NOT_NAMED 1963-01-23 16:00:00 TS -15.7470 104.003 1002 bom main 965 965 P_____O__PP___ SH201963 -15.7883 104.196 -1 -15.7000 103.800 1002 -15.7883 104.196 TC -15.7902 104.201 1 8 108
1963021S11101 1963 9 SI WA NOT_NAMED 1963-01-23 18:00:00 TS -15.8209 104.258 main 968 968 O_____P__OP___ jtwc_sh SH201963 -15.9000 104.500 -1 -15.7684 104.067 1002 -15.9000 104.500 TC -15.8546 104.485 1 7 105
1963021S11101 1963 9 SI WA NOT_NAMED 1963-01-23 19:00:00 TS -15.8396 104.354 1002 bom main 965 965 ______O___P___ SH201963 -1 -15.8000 104.200 1002 TC -15.8851 104.627 1 7 103
1963021S11101 1963 9 SI WA NOT_NAMED 1963-01-23 21:00:00 TS -15.8985 104.601 main 971 969 ______P___P___ SH201963 -1 -15.8666 104.467 1002 TC -15.9435 104.913 1 7 104
1963021S11101 1963 9 SI WA NOT_NAMED 1963-01-23 22:00:00 TS -15.9258 104.705 1002 bom main 969 967 ______O___P___ SH201963 -1 -15.9000 104.600 1002 TC -15.9719 105.057 1 6 105
1963021S11101 1963 9 SI WA NOT_NAMED 1963-01-23 23:00:00 TS -15.9512 104.800 main 978 976 ______P___O___ SH201963 -1 -15.9279 104.733 1002 TC -16.0000 105.200 1 5 107
1963021S11101 1963 9 SI WA NOT_NAMED 1963-01-24 00:00:00 TS -15.9794 104.883 main 976 975 ______P_______ -1 -15.9587 104.867 1002 1 7 109
1963021S11101 1963 9 SI WA NOT_NAMED 1963-01-24 01:00:00 TS -16.0220 105.018 1002 bom main 975 973 ______O_______ -1 -16.0000 105.000 1002 1 8 112
1963021S11101 1963 9 SI WA NOT_NAMED 1963-01-24 03:00:00 TS -16.1349 105.288 main 979 979 ______P_______ -1 -16.1279 105.267 1002 1 9 114
1963021S11101 1963 9 SI WA NOT_NAMED 1963-01-24 04:00:00 TS -16.1969 105.422 1002 bom main 986 984 ______O_______ -1 -16.2000 105.400 1002 1 8 116
1963021S11101 1963 9 SI WA NOT_NAMED 1963-01-24 06:00:00 TS -16.3179 105.686 main 989 989 ______P_______ -1 -16.3359 105.672 1002 1 8 116
1963021S11101 1963 9 SI WA NOT_NAMED 1963-01-24 07:00:00 TS -16.3763 105.810 1002 bom main 998 993 ______O_______ -1 -16.4000 105.800 1002 1 7 116
1963021S11101 1963 9 SI WA NOT_NAMED 1963-01-24 09:00:00 TS -16.4780 106.023 main 1004 1000 ______P_______ -1 -16.5002 106.001 1002 1 6 117
1963021S11101 1963 9 SI WA NOT_NAMED 1963-01-24 12:00:00 TS -16.6126 106.295 main 1002 978 ______P_______ -1 -16.6186 106.238 1002 6 118
1963021S11101 1963 9 SI WA NOT_NAMED 1963-01-24 15:00:00 TS -16.7496 106.553 main 969 963 ______P_______ -1 -16.7462 106.493 1002 6 119
1963021S11101 1963 9 SI WA NOT_NAMED 1963-01-24 16:00:00 TS -16.8012 106.649 1002 bom main 963 931 ______O_______ -1 -16.8000 106.600 1002 7 119
1963021S11101 1963 9 SI WA NOT_NAMED 1963-01-24 18:00:00 TS -16.9196 106.872 main 931 915 ______P_______ -1 -16.9295 106.859 1002 8 121
1963021S11101 1963 9 SI WA NOT_NAMED 1963-01-24 19:00:00 NR -17.0000 107.000 1002 bom main 915 ______O_______ -1 -17.0000 107.000 1002 9 123

About IBTrACS Database

This database is a web-friendly format of International Best Track Archive for Climate Stewardship (IBTrACS), a global best track data archive curated by NOAA dating back to 1842.

Updated: 2021-12-06